• Join FlightAware (Why Join?)
  • Login
  • US Flag 
09:39PM EST


 

Airport Tracker/Info


-or-


 

Live Flight TrackerFlight Track Log ✈ N727CD ✈ 29-Aug-2014 ✈ KCLW - KECP

Flight Track Log - Related Links

Times and Time Zones

All times are in EDT time to prevent confusion due to time zone crossing. See the N727CD flight status page for this flight to view local times or setup timezone preferences in your user account.

Time Position Orientation Groundspeed Altitude Reporting Facility
EDT Latitude Longitude Course Direction KTS MPH feet Rate Location/Type
01:19PM 28.0167 -82.7667 336° Northwest 124 143 2,000  Level Tampa TRACON
01:20PM 28.0500 -82.7833 344° North 134 154 2,900 780 Climbing Tampa TRACON
01:21PM 28.1000 -82.7833 360° North 140 161 3,700 720 Climbing Tampa TRACON
01:22PM 28.1333 -82.7833 360° North 140 161 4,400 660 Climbing Tampa TRACON
01:23PM 28.1667 -82.7833 360° North 138 159 5,000 360 Climbing Tampa TRACON
01:24PM 28.2000 -82.8000 336° Northwest 161 185 5,100 300 Climbing Tampa TRACON
01:26PM 28.2531 -82.8483 321° Northwest 152 175 5,900 420 Climbing Miami Center
01:27PM 28.2708 -82.8714 311° West 150 173 6,100 420 Climbing Jacksonville Center
01:28PM 28.3064 -82.8997 325° Northwest 150 173 6,600 420 Climbing Jacksonville Center
01:28PM 28.3267 -82.9153 326° Northwest 152 175 6,800 360 Climbing Miami Center
01:29PM 28.3589 -82.9439 322° Northwest 150 173 7,200 420 Climbing Miami Center
01:30PM 28.3919 -82.9744 321° Northwest 150 173 7,700 420 Climbing Miami Center
01:31PM 28.4267 -83.0039 323° Northwest 150 173 8,100  Climbing Miami Center
01:32PM 28.4700 -83.0294 333° Northwest 167 192 7,800 -360 Descending Miami Center
01:33PM 28.5161 -83.0567 333° Northwest 181 208 7,400 -480 Descending Miami Center
01:34PM 28.5706 -83.0922 330° Northwest 183 211 6,900 -420 Descending Miami Center
01:35PM 28.6164 -83.1194 332° Northwest 183 211 6,600 -360 Descending Miami Center
01:36PM 28.6608 -83.1478 331° Northwest 183 211 6,200 -300 Descending Miami Center
01:37PM 28.7042 -83.1753 331° Northwest 181 208 6,100 -60 Descending Miami Center
01:38PM 28.7458 -83.2017 331° Northwest 175 201 6,100  Level Miami Center
01:39PM 28.7869 -83.2286 330° Northwest 174 200 6,100  Level Miami Center
01:41PM 28.8361 -83.2622 329° Northwest 170 196 6,100  Level Jacksonville Center
01:42PM 28.8778 -83.2861 333° Northwest 170 196 6,100  Level Jacksonville Center
01:43PM 28.9194 -83.3125 331° Northwest 170 196 6,100  Level Jacksonville Center
01:44PM 28.9611 -83.3386 331° Northwest 170 196 6,100  Level Jacksonville Center
01:45PM 29.0006 -83.3675 327° Northwest 165 190 6,100  Level Jacksonville Center
01:46PM 29.0444 -83.3794 347° North 158 182 6,100  Level Jacksonville Center
01:47PM 29.0839 -83.3750 North 139 160 6,100  Level Jacksonville Center
01:48PM 29.1214 -83.4083 322° Northwest 150 173 6,100  Level Jacksonville Center
01:49PM 29.1631 -83.4347 331° Northwest 165 190 6,100  Level Jacksonville Center
01:50PM 29.2025 -83.4611 330° Northwest 165 190 6,100  Level Jacksonville Center
01:51PM 29.2442 -83.4900 329° Northwest 170 196 6,200  Climbing Jacksonville Center
01:52PM 29.2839 -83.5211 326° Northwest 170 196 6,100 -60 Descending Jacksonville Center
01:53PM 29.3253 -83.5475 331° Northwest 170 196 6,100  Level Jacksonville Center
01:54PM 29.3692 -83.5789 328° Northwest 170 196 6,100  Level Jacksonville Center
01:55PM 29.4169 -83.5983 340° North 170 196 6,100 240 Level Jacksonville Center
01:56PM 29.4608 -83.6128 344° North 165 190 6,600 540 Climbing Jacksonville Center
01:57PM 29.5025 -83.6203 351° North 159 183 7,200 600 Climbing Jacksonville Center
01:58PM 29.5442 -83.6256 354° North 159 183 7,800 420 Climbing Jacksonville Center
01:59PM 29.5858 -83.6306 354° North 159 183 8,100 120 Climbing Jacksonville Center
02:00PM 29.6317 -83.6547 335° Northwest 159 183 8,100  Level Jacksonville Center
02:01PM 29.6711 -83.6861 325° Northwest 170 196 8,100 -60 Level Jacksonville Center
02:02PM 29.7106 -83.7200 323° Northwest 176 203 8,000 -60 Descending Jacksonville Center
02:03PM 29.7564 -83.7419 337° Northwest 181 208 8,000  Level Jacksonville Center
02:04PM 29.8042 -83.7567 345° North 181 208 8,000  Level Jacksonville Center
02:05PM 29.8542 -83.7692 348° North 176 203 8,100  Climbing Jacksonville Center
02:06PM 29.8981 -83.7911 337° Northwest 171 197 8,000 -60 Descending Jacksonville Center
02:07PM 29.9481 -83.8036 348° North 171 197 8,000  Level Jacksonville Center
02:08PM 29.9961 -83.7992 North 166 191 8,000 -180 Level Jacksonville Center
02:09PM 30.0461 -83.7900 North 166 191 7,700 -420 Descending Jacksonville Center
02:10PM 30.1006 -83.7833 North 184 212 7,200 -540 Descending Jacksonville Center
02:11PM 30.1550 -83.7694 12° North 189 217 6,700 -120 Descending Jacksonville Center
02:37PM 30.9356 -84.7622 280° West 168 193 4,100 -120 Descending Jacksonville Center
02:38PM 30.7025 -84.9980 281° West  Level FlightAware Approximate
02:39PM 30.7115 -85.0523 281° West  Level FlightAware Approximate
02:39PM 30.9533 -84.8281 287° West 168 193 4,100  Level Jacksonville Center
02:40PM 30.7202 -85.1067 280° West  Level FlightAware Approximate
02:40PM 30.9672 -84.8817 287° West 166 191 4,200  Level Jacksonville Center
02:41PM 30.7283 -85.1611 280° West  Level FlightAware Approximate
02:41PM 30.9767 -84.9328 282° West 166 191 4,100  Level Jacksonville Center
02:42PM 30.7364 -85.2156 280° West  Level FlightAware Approximate
02:42PM 30.9925 -84.9914 288° West 167 192 4,100  Level Jacksonville Center
02:43PM 30.7445 -85.2701 280° West  Level FlightAware Approximate
02:43PM 31.0061 -85.0450 287° West 168 193 4,100  Level Jacksonville Center
02:44PM 31.0181 -85.0936 286° West 167 192 4,100  Level Jacksonville Center
02:45PM 31.0253 -85.1519 278° West 168 193 4,100  Level Jacksonville Center
02:46PM 31.0306 -85.2006 277° West 165 190 4,100  Level Jacksonville Center
02:47PM 31.0317 -85.2517 271° West 167 192 4,200  Climbing Jacksonville Center
02:48PM 31.0392 -85.3100 279° West 167 192 4,100 -60 Descending Jacksonville Center
02:49PM 31.0442 -85.3706 276° West 168 193 4,100  Level Jacksonville Center
02:50PM 31.0411 -85.4192 266° West 169 194 4,200  Climbing Jacksonville Center
02:51PM 31.0294 -85.4769 257° West 162 186 4,100 -60 Descending Jacksonville Center
02:52PM 31.0100 -85.5175 241° Southwest 162 186 4,100  Level Jacksonville Center
02:54PM 30.9425 -85.5222 183° South  Level FlightAware Approximate
03:01PM 30.6429 -85.6209 207° Southwest  Level FlightAware Approximate
03:02PM 30.6037 -85.6445 207° Southwest  Level FlightAware Approximate
03:03PM 30.5645 -85.6679 206° Southwest  Level FlightAware Approximate
03:04PM 30.5247 -85.6900 206° Southwest  Level FlightAware Approximate
03:05PM 30.4849 -85.7121 206° Southwest  Level FlightAware Approximate
03:06PM 30.4451 -85.7342 206° Southwest  Level FlightAware Approximate
03:07PM 30.4051 -85.7558 203° Southwest  Level FlightAware Approximate
03:08PM 30.3646 -85.7760 203° Southwest  Level FlightAware Approximate
03:09PM 30.3241 -85.7963 203° Southwest  Level FlightAware Approximate
03:10PM 30.3500 -85.7833 203° Southwest  Level FlightAware Approximate
03:11PM 30.3500 -85.8345 270° West  Level FlightAware Approximate
03:12PM 30.3500 -85.7833 203° Southwest  Level FlightAware Approximate
03:13PM 30.3500 -85.8345 270° West  Level FlightAware Approximate
03:14PM 30.3500 -85.7833 203° Southwest  Level FlightAware Approximate
03:15PM 30.3500 -85.8345 270° West  Level FlightAware Approximate
03:16PM 30.3500 -85.7833 203° Southwest  Level FlightAware Approximate
03:17PM 30.3500 -85.8345 270° West  Level FlightAware Approximate
03:18PM 30.3500 -85.7833 203° Southwest  Level FlightAware Approximate
03:19PM 30.3500 -85.8345 270° West  Level FlightAware Approximate